Aviation Digital Data Service (ADDS)

Output produced by METARs form (0215 UTC 02 August 2015)
found at http://aviationweather.gov/adds/metars/
 
KGFL 012352Z 0200/0224 27005KT P6SM SCT100 
     FM020800 00000KT P6SM MIFG SCT200 
     FM021200 19005KT P6SM SCT120 
     FM021800 22008G18KT P6SM SCT060 
     FM022200 22005KT P6SM SCT100